Aviation Digital Data Service (ADDS)

Output produced by METARs form (2358 UTC 25 May 2017)
found at http://aviationweather.gov/adds/metars/
 
KISO 252325Z 2600/2624 24010KT P6SM SCT250 AMD LTD TO CLD VIS AND WIND